createdAt,value
2023-06-10T00:01:25.715Z,40.37
2023-06-10T00:03:55.456Z,40.73
2023-06-10T00:06:25.426Z,40.81
2023-06-10T00:08:52.748Z,40.94
2023-06-10T00:11:19.486Z,40.95
2023-06-10T00:13:46.402Z,41.08
2023-06-10T00:16:13.119Z,41.32
2023-06-10T00:18:39.930Z,41.11
2023-06-10T00:21:06.997Z,41.15
2023-06-10T00:23:38.849Z,41.43
2023-06-10T00:26:06.222Z,41.42
2023-06-10T00:28:32.957Z,41.65
2023-06-10T00:30:59.719Z,41.61
2023-06-10T00:33:26.520Z,41.71
2023-06-10T00:35:53.545Z,41.73
2023-06-10T00:38:20.519Z,42.18
2023-06-10T00:40:47.365Z,42.14
2023-06-10T00:43:14.040Z,42.48
2023-06-10T00:45:40.968Z,42.51
2023-06-10T00:48:08.253Z,42.77
2023-06-10T00:50:35.850Z,42.61
2023-06-10T00:53:02.863Z,42.33
2023-06-10T00:55:29.568Z,42.63
2023-06-10T00:57:56.346Z,42.77
2023-06-10T01:00:23.085Z,43.06
2023-06-10T01:02:50.536Z,42.54
2023-06-10T01:05:17.413Z,43.26
2023-06-10T01:07:48.577Z,43.07
2023-06-10T01:10:29.766Z,43.44
2023-06-10T01:13:00.618Z,43.77
2023-06-10T01:15:27.590Z,43.92
2023-06-10T01:17:59.505Z,43.83
2023-06-10T01:20:30.831Z,43.86
2023-06-10T01:22:59.140Z,43.78
2023-06-10T01:25:30.731Z,43.88
2023-06-10T01:28:04.725Z,44.04
2023-06-10T01:30:41.069Z,44.13
2023-06-10T01:33:10.771Z,44.37
2023-06-10T01:35:40.376Z,44.40
2023-06-10T01:38:08.054Z,44.55
2023-06-10T01:40:35.697Z,45.28
2023-06-10T01:43:03.099Z,45.04
2023-06-10T01:45:29.819Z,45.51
2023-06-10T01:47:56.669Z,45.87
2023-06-10T01:50:23.777Z,45.68
2023-06-10T01:52:50.521Z,45.58
2023-06-10T01:55:17.409Z,45.75
2023-06-10T01:57:44.156Z,46.00
2023-06-10T02:00:11.595Z,45.87
2023-06-10T02:02:38.442Z,45.95
2023-06-10T02:05:06.602Z,45.58
2023-06-10T02:07:33.418Z,46.03
2023-06-10T02:10:00.078Z,46.03
2023-06-10T02:12:26.897Z,46.33
2023-06-10T02:14:53.685Z,46.33
2023-06-10T02:17:20.617Z,46.71
2023-06-10T02:19:53.593Z,46.63
2023-06-10T02:22:24.223Z,47.05
2023-06-10T02:24:51.130Z,46.70
2023-06-10T02:27:19.311Z,46.90
2023-06-10T02:29:46.063Z,46.94
2023-06-10T02:32:12.772Z,46.99
2023-06-10T02:34:39.489Z,47.22
2023-06-10T02:37:06.255Z,47.50
2023-06-10T02:39:32.953Z,47.07
2023-06-10T02:41:59.663Z,48.06
2023-06-10T02:44:26.418Z,47.77
2023-06-10T02:46:53.200Z,47.82
2023-06-10T02:49:19.852Z,47.60
2023-06-10T02:51:46.516Z,47.71
2023-06-10T02:54:13.184Z,48.01
2023-06-10T02:56:42.942Z,48.04
2023-06-10T02:59:09.735Z,48.40
2023-06-10T03:01:38.192Z,48.05
2023-06-10T03:04:06.538Z,48.22
2023-06-10T03:06:34.943Z,48.27
2023-06-10T03:09:01.847Z,48.62
2023-06-10T03:11:28.512Z,47.93
2023-06-10T03:13:55.498Z,48.78
2023-06-10T03:16:22.287Z,48.41
2023-06-10T03:18:50.473Z,48.92
2023-06-10T03:21:17.304Z,48.86
2023-06-10T03:23:44.175Z,49.11
2023-06-10T03:26:12.962Z,49.32
2023-06-10T03:28:39.655Z,49.03
2023-06-10T03:31:06.694Z,49.54
2023-06-10T03:33:34.023Z,49.64
2023-06-10T03:36:00.710Z,49.51
2023-06-10T03:38:27.433Z,49.95
2023-06-10T03:40:54.086Z,50.05
2023-06-10T03:43:21.361Z,50.40
2023-06-10T03:45:49.402Z,50.01
2023-06-10T03:48:16.515Z,50.84
2023-06-10T03:50:43.309Z,50.37
2023-06-10T03:53:10.034Z,50.50
2023-06-10T03:55:37.350Z,50.61
2023-06-10T03:58:04.017Z,50.39
2023-06-10T04:00:31.128Z,50.55
2023-06-10T04:02:59.399Z,50.73
2023-06-10T04:05:26.211Z,50.86
2023-06-10T04:07:52.975Z,51.27
2023-06-10T04:10:19.767Z,50.63
2023-06-10T04:12:46.533Z,50.68
2023-06-10T04:15:14.470Z,50.73
2023-06-10T04:17:41.279Z,50.42
2023-06-10T04:20:09.162Z,50.85
2023-06-10T04:22:36.158Z,50.48
2023-06-10T04:25:03.290Z,50.59
2023-06-10T04:27:30.560Z,50.36
2023-06-10T04:29:57.235Z,50.96
2023-06-10T04:32:23.987Z,50.96
2023-06-10T04:34:50.788Z,50.66
2023-06-10T04:37:17.558Z,50.50
2023-06-10T04:39:44.500Z,50.61
2023-06-10T04:42:11.434Z,50.54
2023-06-10T04:44:38.108Z,50.79
2023-06-10T04:47:05.112Z,50.82
2023-06-10T04:49:32.425Z,50.57
2023-06-10T04:51:59.100Z,50.84
2023-06-10T04:54:26.037Z,51.07
2023-06-10T04:56:52.855Z,50.79
2023-06-10T04:59:19.526Z,50.55
2023-06-10T05:01:46.243Z,50.53
2023-06-10T05:04:12.965Z,50.41
2023-06-10T05:06:39.773Z,50.04
2023-06-10T05:09:06.505Z,50.23
2023-06-10T05:11:33.474Z,50.17
2023-06-10T05:14:00.260Z,50.07
2023-06-10T05:16:26.993Z,49.88
2023-06-10T05:18:53.676Z,49.82
2023-06-10T05:21:20.401Z,49.89
2023-06-10T05:23:47.388Z,49.77
2023-06-10T05:26:14.164Z,49.49
2023-06-10T05:28:40.945Z,49.33
2023-06-10T05:31:07.645Z,49.01
2023-06-10T05:33:34.352Z,49.19
2023-06-10T05:36:01.276Z,49.13
2023-06-10T05:38:28.275Z,48.86
2023-06-10T05:40:54.986Z,48.69
2023-06-10T05:43:21.657Z,48.84
2023-06-10T05:45:48.459Z,48.47
2023-06-10T05:48:15.329Z,48.73
2023-06-10T05:50:43.722Z,48.40
2023-06-10T05:53:16.289Z,48.27
2023-06-10T05:55:44.619Z,47.84
2023-06-10T05:58:13.414Z,47.48
2023-06-10T06:00:41.051Z,47.50
2023-06-10T06:03:11.130Z,47.43
2023-06-10T06:05:39.299Z,47.17
2023-06-10T06:08:06.670Z,46.96
2023-06-10T06:10:33.717Z,47.01
2023-06-10T06:13:01.256Z,46.91
2023-06-10T06:15:28.118Z,46.77
2023-06-10T06:17:55.127Z,47.00
2023-06-10T06:20:22.013Z,46.55
2023-06-10T06:22:49.017Z,46.71
2023-06-10T06:25:16.303Z,46.58
2023-06-10T06:27:43.005Z,46.26
2023-06-10T06:30:10.161Z,46.18
2023-06-10T06:32:37.042Z,45.96
2023-06-10T06:35:04.139Z,45.63
2023-06-10T06:37:30.860Z,45.71
2023-06-10T06:40:02.203Z,45.72
2023-06-10T06:42:30.853Z,45.79
2023-06-10T06:44:57.551Z,45.61
2023-06-10T06:47:24.324Z,45.57
2023-06-10T06:49:51.186Z,45.26
2023-06-10T06:52:17.970Z,45.01
2023-06-10T06:54:44.731Z,44.87
2023-06-10T06:57:11.861Z,44.83
2023-06-10T06:59:38.604Z,45.13
2023-06-10T07:02:05.561Z,44.99
2023-06-10T07:04:32.581Z,45.00
2023-06-10T07:06:59.316Z,44.59
2023-06-10T07:09:25.991Z,44.49
2023-06-10T07:11:52.737Z,44.33
2023-06-10T07:14:19.478Z,44.14
2023-06-10T07:16:47.363Z,43.98
2023-06-10T07:19:14.692Z,43.87
2023-06-10T07:21:41.403Z,43.84
2023-06-10T07:24:08.202Z,43.55
2023-06-10T07:26:35.041Z,43.53
2023-06-10T07:29:01.767Z,43.59
2023-06-10T07:31:28.516Z,43.19
2023-06-10T07:33:55.189Z,43.03
2023-06-10T07:36:21.858Z,42.52
2023-06-10T07:38:48.663Z,42.04
2023-06-10T07:41:17.861Z,41.76
2023-06-10T07:43:44.587Z,41.79
2023-06-10T07:46:11.323Z,41.86
2023-06-10T07:48:38.141Z,41.67
2023-06-10T07:51:04.852Z,41.40
2023-06-10T07:53:31.580Z,41.27
2023-06-10T07:55:58.309Z,40.70
2023-06-10T07:58:25.037Z,40.50
2023-06-10T08:00:51.772Z,40.46
2023-06-10T08:03:18.598Z,39.80
2023-06-10T08:05:45.447Z,39.57
2023-06-10T08:08:12.190Z,39.53
2023-06-10T08:10:39.088Z,39.09
2023-06-10T08:13:05.827Z,39.10
2023-06-10T08:15:32.500Z,39.09
2023-06-10T08:17:59.210Z,39.05
2023-06-10T08:20:26.275Z,38.92
2023-06-10T08:22:53.018Z,38.79
2023-06-10T08:25:19.855Z,38.61
2023-06-10T08:27:46.577Z,38.15
2023-06-10T08:30:14.443Z,37.95
2023-06-10T08:32:41.295Z,37.94
2023-06-10T08:35:08.598Z,37.63
2023-06-10T08:37:35.499Z,37.28
2023-06-10T08:40:02.384Z,37.24
2023-06-10T08:42:42.586Z,37.06
2023-06-10T08:45:14.510Z,36.81
2023-06-10T08:47:45.681Z,36.70
2023-06-10T08:50:13.034Z,36.70
2023-06-10T08:52:44.524Z,36.30
2023-06-10T08:55:15.218Z,36.06
2023-06-10T08:57:46.550Z,35.80
2023-06-10T09:00:14.569Z,35.47
2023-06-10T09:02:41.390Z,35.37
2023-06-10T09:05:09.063Z,35.44
2023-06-10T09:07:37.407Z,35.20
2023-06-10T09:10:08.225Z,35.09
2023-06-10T09:12:36.694Z,34.75
2023-06-10T09:15:04.126Z,34.78
2023-06-10T09:17:31.067Z,34.57
2023-06-10T09:19:58.310Z,34.24
2023-06-10T09:22:26.630Z,34.45
2023-06-10T09:25:06.636Z,34.35
2023-06-10T09:27:33.818Z,34.29
2023-06-10T09:30:00.794Z,34.21
2023-06-10T09:32:28.393Z,34.09
2023-06-10T09:34:55.201Z,33.76
2023-06-10T09:37:23.781Z,33.89
2023-06-10T09:40:07.852Z,33.75
2023-06-10T09:42:36.631Z,33.46
2023-06-10T09:45:04.750Z,33.54
2023-06-10T09:47:31.633Z,33.62
2023-06-10T09:49:58.497Z,33.25
2023-06-10T09:52:26.765Z,33.22
2023-06-10T09:54:54.987Z,33.05
2023-06-10T09:57:23.661Z,32.89
2023-06-10T09:59:54.067Z,32.93
2023-06-10T10:02:21.297Z,32.95
2023-06-10T10:04:48.345Z,32.67
2023-06-10T10:07:15.371Z,32.22
2023-06-10T10:09:43.538Z,32.14
2023-06-10T10:12:12.276Z,31.67
2023-06-10T10:14:40.092Z,31.77
2023-06-10T10:17:15.181Z,31.73
2023-06-10T10:19:49.532Z,31.76
2023-06-10T10:22:27.836Z,31.70
2023-06-10T10:24:58.297Z,31.43
2023-06-10T10:27:29.788Z,31.06
2023-06-10T10:29:59.489Z,31.10
2023-06-10T10:32:55.149Z,30.62
2023-06-10T10:35:26.229Z,30.84
2023-06-10T10:37:55.141Z,30.80
2023-06-10T10:40:23.432Z,30.48
2023-06-10T10:42:51.193Z,30.12
2023-06-10T10:45:18.690Z,30.37
2023-06-10T10:47:54.381Z,29.79
2023-06-10T10:50:22.255Z,29.79
2023-06-10T10:52:54.857Z,29.64
2023-06-10T10:55:22.309Z,29.52
2023-06-10T10:58:01.597Z,29.80
2023-06-10T11:00:32.678Z,29.49
2023-06-10T11:03:12.156Z,29.24
2023-06-10T11:05:49.994Z,29.04
2023-06-10T11:08:36.862Z,29.07
2023-06-10T11:11:23.012Z,29.08
2023-06-10T11:14:11.095Z,29.14
2023-06-10T11:16:44.992Z,28.97
2023-06-10T11:19:36.194Z,28.79
2023-06-10T11:22:08.148Z,28.41
2023-06-10T11:24:35.175Z,28.69
2023-06-10T11:27:38.581Z,28.47
2023-06-10T11:30:05.291Z,28.50
2023-06-10T11:32:34.444Z,28.87
2023-06-10T11:35:05.262Z,28.36
2023-06-10T11:37:32.173Z,28.13
2023-06-10T11:40:00.055Z,27.71
2023-06-10T11:42:26.997Z,27.39
2023-06-10T11:44:55.507Z,27.62
2023-06-10T11:47:26.039Z,27.95
2023-06-10T11:49:58.738Z,27.92
2023-06-10T11:52:33.381Z,28.03
2023-06-10T11:55:00.285Z,28.28
2023-06-10T11:57:27.023Z,28.20
2023-06-10T11:59:53.721Z,27.72
2023-06-10T12:02:20.695Z,27.46
2023-06-10T12:04:47.596Z,27.33
2023-06-10T12:07:21.355Z,27.37
2023-06-10T12:09:48.473Z,27.35
2023-06-10T12:12:15.398Z,27.25
2023-06-10T12:14:51.263Z,27.12
2023-06-10T12:17:17.985Z,27.18
2023-06-10T12:19:44.669Z,27.49
2023-06-10T12:22:11.472Z,27.26
2023-06-10T12:25:05.859Z,27.17
2023-06-10T12:27:33.741Z,27.08
2023-06-10T12:30:04.835Z,26.86
2023-06-10T12:32:42.202Z,26.93
2023-06-10T12:35:11.059Z,27.21
2023-06-10T12:37:41.278Z,26.66
2023-06-10T12:40:12.988Z,26.34
2023-06-10T12:42:40.310Z,26.19
2023-06-10T12:45:09.427Z,26.26
2023-06-10T12:47:40.092Z,25.96
2023-06-10T12:50:07.780Z,25.31
2023-06-10T12:52:34.463Z,25.07
2023-06-10T12:55:01.956Z,25.24
2023-06-10T12:57:29.062Z,25.31
2023-06-10T12:59:58.394Z,25.13
2023-06-10T13:02:25.512Z,25.49
2023-06-10T13:04:52.866Z,25.14
2023-06-10T13:07:19.700Z,24.75
2023-06-10T13:09:50.060Z,24.65
2023-06-10T13:12:24.838Z,24.57
2023-06-10T13:14:57.510Z,24.97
2023-06-10T13:17:24.803Z,24.61
2023-06-10T13:19:51.736Z,24.27
2023-06-10T13:22:20.592Z,24.26
2023-06-10T13:24:47.857Z,24.34
2023-06-10T13:27:15.332Z,24.41
2023-06-10T13:29:42.135Z,24.74
2023-06-10T13:32:09.308Z,24.45
2023-06-10T13:34:37.274Z,23.86
2023-06-10T13:37:06.004Z,23.68
2023-06-10T13:39:32.805Z,23.76
2023-06-10T13:41:59.830Z,23.41
2023-06-10T13:44:26.686Z,23.35
2023-06-10T13:46:53.483Z,23.47
2023-06-10T13:49:20.836Z,23.13
2023-06-10T13:51:47.598Z,22.68
2023-06-10T13:54:16.862Z,22.52
2023-06-10T13:56:43.766Z,23.04
2023-06-10T13:59:10.499Z,22.64
2023-06-10T14:01:37.409Z,22.54
2023-06-10T14:04:04.350Z,22.64
2023-06-10T14:06:31.887Z,22.94
2023-06-10T14:08:58.736Z,22.61
2023-06-10T14:11:25.422Z,22.72
2023-06-10T14:13:52.258Z,23.03
2023-06-10T14:16:19.244Z,22.11
2023-06-10T14:18:45.981Z,22.27
2023-06-10T14:21:13.138Z,22.18
2023-06-10T14:23:39.962Z,22.31
2023-06-10T14:26:08.347Z,21.60
2023-06-10T14:28:35.028Z,21.76
2023-06-10T14:31:01.829Z,21.96
2023-06-10T14:33:28.539Z,21.60
2023-06-10T14:35:55.459Z,21.16
2023-06-10T14:38:22.131Z,21.18
2023-06-10T14:40:48.791Z,21.24
2023-06-10T14:43:15.498Z,21.50
2023-06-10T14:45:42.411Z,21.16
2023-06-10T14:48:09.578Z,20.99
2023-06-10T14:50:36.692Z,20.76
2023-06-10T14:53:03.980Z,20.95
2023-06-10T14:55:30.810Z,20.93
2023-06-10T14:57:58.951Z,20.75
2023-06-10T15:00:26.689Z,20.51
2023-06-10T15:02:54.784Z,20.53
2023-06-10T15:05:21.782Z,20.29
2023-06-10T15:07:49.169Z,20.31
2023-06-10T15:10:17.343Z,20.11
2023-06-10T15:12:44.168Z,19.94
2023-06-10T15:15:11.882Z,19.91
2023-06-10T15:17:38.871Z,19.67
2023-06-10T15:20:06.950Z,20.06
2023-06-10T15:22:36.223Z,20.33
2023-06-10T15:25:08.752Z,20.54
2023-06-10T15:27:48.173Z,20.45
2023-06-10T15:30:15.162Z,20.07
2023-06-10T15:32:41.951Z,20.23
2023-06-10T15:35:09.326Z,20.05
2023-06-10T15:37:36.732Z,20.03
2023-06-10T15:40:03.692Z,20.03
2023-06-10T15:42:30.457Z,19.81
2023-06-10T15:44:57.163Z,20.06
2023-06-10T15:47:23.884Z,20.21
2023-06-10T15:49:51.389Z,20.41
2023-06-10T15:52:18.169Z,19.95
2023-06-10T15:54:45.065Z,19.83
2023-06-10T15:57:11.866Z,19.85
2023-06-10T15:59:39.012Z,19.83
2023-06-10T16:02:06.129Z,19.84
2023-06-10T16:04:32.797Z,19.80
2023-06-10T16:06:59.499Z,19.91
2023-06-10T16:09:26.181Z,19.49
2023-06-10T16:11:52.919Z,19.70
2023-06-10T16:14:19.693Z,19.95
2023-06-10T16:16:46.455Z,20.07
2023-06-10T16:19:13.375Z,20.05
2023-06-10T16:21:41.394Z,19.70
2023-06-10T16:24:09.608Z,19.76
2023-06-10T16:26:36.432Z,19.56
2023-06-10T16:29:03.287Z,19.74
2023-06-10T16:31:30.091Z,19.67
2023-06-10T16:33:56.821Z,19.68
2023-06-10T16:36:23.547Z,19.67
2023-06-10T16:38:50.288Z,19.67
2023-06-10T16:41:17.133Z,19.82
2023-06-10T16:43:43.872Z,19.82
2023-06-10T16:46:10.547Z,19.71
2023-06-10T16:48:37.469Z,19.64
2023-06-10T16:51:04.620Z,19.43
2023-06-10T16:53:31.309Z,19.92
2023-06-10T16:56:00.738Z,19.67
2023-06-10T16:58:29.078Z,19.79
2023-06-10T17:01:01.141Z,19.64
2023-06-10T17:03:27.837Z,19.75
2023-06-10T17:05:54.575Z,19.70
2023-06-10T17:08:21.407Z,19.86
2023-06-10T17:10:48.116Z,19.99
2023-06-10T17:13:16.223Z,20.00
2023-06-10T17:15:42.988Z,20.37
2023-06-10T17:18:10.062Z,20.15
2023-06-10T17:20:36.797Z,20.20
2023-06-10T17:23:04.024Z,20.03
2023-06-10T17:25:30.820Z,19.75
2023-06-10T17:27:57.509Z,20.13
2023-06-10T17:30:24.272Z,20.24
2023-06-10T17:32:52.066Z,20.37
2023-06-10T17:35:18.902Z,21.06
2023-06-10T17:37:46.848Z,20.75
2023-06-10T17:40:14.006Z,21.00
2023-06-10T17:42:40.979Z,21.64
2023-06-10T17:45:09.534Z,21.90
2023-06-10T17:47:36.592Z,22.23
2023-06-10T17:50:03.426Z,22.51
2023-06-10T17:52:30.207Z,23.03
2023-06-10T17:54:58.114Z,23.05
2023-06-10T17:57:24.856Z,22.96
2023-06-10T17:59:52.049Z,23.39
2023-06-10T18:02:18.924Z,23.59
2023-06-10T18:04:45.868Z,23.65
2023-06-10T18:07:12.698Z,23.89
2023-06-10T18:09:39.386Z,23.80
2023-06-10T18:12:07.628Z,24.17
2023-06-10T18:14:34.352Z,24.31
2023-06-10T18:17:01.225Z,24.47
2023-06-10T18:19:27.922Z,24.57
2023-06-10T18:21:54.611Z,25.08
2023-06-10T18:24:22.302Z,25.36
2023-06-10T18:26:49.416Z,25.80
2023-06-10T18:29:16.278Z,25.70
2023-06-10T18:31:43.525Z,25.71
2023-06-10T18:34:10.470Z,26.05
2023-06-10T18:36:37.407Z,26.17
2023-06-10T18:39:04.274Z,26.27
2023-06-10T18:41:31.029Z,26.28
2023-06-10T18:44:00.787Z,26.29
2023-06-10T18:46:27.978Z,26.55
2023-06-10T18:48:54.819Z,26.66
2023-06-10T18:51:23.669Z,26.82
2023-06-10T18:53:50.731Z,26.97
2023-06-10T18:56:17.811Z,27.12
2023-06-10T18:58:47.687Z,26.86
2023-06-10T19:01:14.504Z,27.11
2023-06-10T19:03:41.457Z,27.29
2023-06-10T19:06:08.211Z,27.40
2023-06-10T19:08:35.018Z,27.51
2023-06-10T19:11:02.318Z,27.59
2023-06-10T19:13:30.187Z,27.76
2023-06-10T19:15:57.027Z,27.66
2023-06-10T19:18:23.859Z,28.03
2023-06-10T19:20:51.604Z,27.92
2023-06-10T19:23:18.693Z,27.90
2023-06-10T19:25:45.425Z,28.04
2023-06-10T19:28:12.180Z,28.20
2023-06-10T19:30:38.932Z,28.36
2023-06-10T19:33:07.967Z,28.23
2023-06-10T19:35:36.183Z,28.54
2023-06-10T19:38:02.948Z,28.66
2023-06-10T19:40:29.776Z,28.91
2023-06-10T19:42:58.621Z,28.87
2023-06-10T19:45:25.525Z,28.88
2023-06-10T19:47:52.454Z,29.09
2023-06-10T19:50:19.324Z,29.29
2023-06-10T19:52:46.423Z,29.24
2023-06-10T19:55:15.270Z,29.47
2023-06-10T19:57:42.153Z,29.45
2023-06-10T20:00:10.098Z,29.32
2023-06-10T20:02:36.981Z,29.63
2023-06-10T20:05:03.886Z,29.93
2023-06-10T20:07:30.626Z,29.89
2023-06-10T20:09:57.357Z,29.74
2023-06-10T20:12:24.113Z,29.85
2023-06-10T20:14:51.175Z,29.71
2023-06-10T20:17:17.837Z,30.07
2023-06-10T20:19:49.129Z,30.19
2023-06-10T20:22:17.258Z,30.17
2023-06-10T20:24:44.068Z,30.46
2023-06-10T20:27:11.210Z,30.58
2023-06-10T20:29:37.956Z,30.77
2023-06-10T20:32:05.289Z,30.74
2023-06-10T20:34:32.189Z,30.87
2023-06-10T20:36:58.921Z,30.88
2023-06-10T20:39:26.457Z,30.90
2023-06-10T20:41:53.141Z,31.16
2023-06-10T20:44:19.865Z,31.16
2023-06-10T20:46:46.655Z,31.16
2023-06-10T20:49:15.401Z,31.29
2023-06-10T20:51:42.432Z,31.36
2023-06-10T20:54:09.093Z,31.29
2023-06-10T20:56:35.831Z,31.54
2023-06-10T20:59:02.519Z,31.72
2023-06-10T21:01:29.321Z,31.95
2023-06-10T21:03:56.276Z,31.91
2023-06-10T21:06:26.343Z,32.02
2023-06-10T21:08:53.150Z,32.09
2023-06-10T21:11:19.849Z,32.44
2023-06-10T21:13:46.537Z,32.19
2023-06-10T21:16:13.393Z,32.56
2023-06-10T21:18:40.188Z,32.67
2023-06-10T21:21:07.014Z,32.65
2023-06-10T21:23:33.760Z,32.98
2023-06-10T21:26:01.916Z,32.97
2023-06-10T21:28:28.611Z,32.98
2023-06-10T21:30:55.430Z,32.97
2023-06-10T21:33:24.076Z,33.14
2023-06-10T21:35:51.347Z,33.05
2023-06-10T21:38:18.109Z,33.20
2023-06-10T21:40:44.858Z,33.05
2023-06-10T21:43:11.608Z,33.18
2023-06-10T21:45:38.263Z,33.40
2023-06-10T21:48:05.253Z,33.53
2023-06-10T21:50:32.206Z,33.43
2023-06-10T21:53:01.292Z,33.67
2023-06-10T21:55:28.477Z,33.68
2023-06-10T21:57:55.192Z,33.93
2023-06-10T22:00:22.194Z,33.96
2023-06-10T22:02:48.998Z,33.98
2023-06-10T22:05:15.846Z,33.99
2023-06-10T22:07:42.651Z,34.10
2023-06-10T22:10:09.739Z,34.50
2023-06-10T22:12:36.661Z,34.54
2023-06-10T22:15:04.866Z,34.56
2023-06-10T22:17:31.673Z,34.96
2023-06-10T22:19:58.364Z,35.01
2023-06-10T22:22:25.425Z,34.97
2023-06-10T22:24:56.290Z,35.21
2023-06-10T22:27:23.263Z,35.14
2023-06-10T22:29:50.128Z,35.34
2023-06-10T22:32:16.958Z,35.30
2023-06-10T22:34:43.682Z,35.46
2023-06-10T22:37:10.597Z,35.65
2023-06-10T22:39:37.280Z,35.68
2023-06-10T22:42:05.841Z,36.07
2023-06-10T22:44:32.942Z,36.16
2023-06-10T22:46:59.641Z,36.04
2023-06-10T22:49:26.425Z,36.43
2023-06-10T22:51:53.132Z,36.69
2023-06-10T22:54:19.816Z,36.76
2023-06-10T22:56:46.472Z,36.68
2023-06-10T22:59:13.120Z,36.74
2023-06-10T23:01:39.845Z,37.06
2023-06-10T23:04:06.702Z,36.91
2023-06-10T23:06:33.387Z,37.40
2023-06-10T23:09:00.061Z,37.22
2023-06-10T23:11:26.793Z,37.52
2023-06-10T23:13:53.548Z,37.77
2023-06-10T23:16:20.307Z,37.67
2023-06-10T23:18:47.757Z,37.96
2023-06-10T23:21:15.890Z,38.11
2023-06-10T23:23:42.669Z,37.90
2023-06-10T23:26:09.411Z,37.73
2023-06-10T23:28:36.087Z,38.30
2023-06-10T23:31:02.887Z,38.26
2023-06-10T23:33:31.972Z,38.71
2023-06-10T23:35:59.398Z,38.88
2023-06-10T23:38:26.413Z,38.60
2023-06-10T23:40:53.104Z,38.82
2023-06-10T23:43:19.778Z,39.06
2023-06-10T23:45:46.570Z,39.43
2023-06-10T23:48:13.286Z,39.57
2023-06-10T23:50:41.010Z,39.63
2023-06-10T23:53:07.836Z,39.43
2023-06-10T23:55:38.000Z,39.80
2023-06-10T23:58:04.816Z,39.79
